KLTS/LTS METAR and TAF weather

Enter ICAO airport designator
Station Type Date Time Source
KLTS METAR 2019/04/25 08:56 UTC NOAA

KLTS 250856Z AUTO 10004KT 10SM CLR 11/11 A2980 RMK AO2 SLP086 T01070107 56012 $


Station Type Date Time Source
KLTS Decoded METAR 2019/04/25 08:56 UTC NOAA

Altus Air Force Base, OK, United States (KLTS) 34-39N 099-16W 420M
Apr 25, 2019 - 04:56 AM EDT / 2019.04.25 0856 UTC
Wind: from the E (100 degrees) at 5 MPH (4 KT):0
Visibility: 10 mile(s):0
Sky conditions: clear
Temperature: 51.3 F (10.7 C)
Dew Point: 51.3 F (10.7 C)
Relative Humidity: 100%
Pressure (altimeter): 29.8 in. Hg (1009 hPa)
Pressure tendency: 0.04 inches (1.2 hPa) lower than three hours ago
ob: KLTS 250856Z AUTO 10004KT 10SM CLR 11/11 A2980 RMK AO2 SLP086 T01070107 56012
cycle: 9

Station Type Date Time Source
KLTS TAF 2019/04/25 09:12 UTC NOAA

TAF KLTS 250905Z 2509/2615 VRB03KT 9999 SKC QNH2978INS
BECMG 2511/2512 VRB06KT 8000 BR SKC QNH2978INS
BECMG 2513/2514 VRB06KT 4800 BR SCT005 QNH2982INS
BECMG 2516/2517 35005KT 8000 BR SCT005 QNH2983INS
BECMG 2517/2518 34009KT 9999 NSW SKC QNH2983INS
BECMG 2521/2522 34010G15KT 9999 FEW050 QNH2983INS
BECMG 2523/2524 35018G28KT 9999 FEW050 QNH2992INS
BECMG 2602/2603 01012G18KT 9999 SKC 510062 QNH3004INS
BECMG 2608/2609 35009KT 9999 FEW200 510052 QNH3017INS
BECMG 2612/2613 VRB06KT 9999 BKN180 621804 QNH3018INS TX28/2521Z TN09/2512Z

Example: see airport list